Dades meteomassalio
Diari Summary for Febrer 5, 2017 Units:  English    Metric   Both
« Previous Day
Next Day »
Diari Semanal Mensual Anual Personalitzat
  Maxima: Minima: Mijana:
Temperatura: TemperatureC °F 7.1 °F 9.5 °F
Rosada: DewpointC °F 0.0 °F 4.4 °F
Humitat: Humidity % 54 % 71 %
Velocitat del vent: WindSpeedKMH mph 0.0 mph 28.6 mph
Racha vent: WindSpeedGustKMH mph - -
Vent:- - SSE
Pressio: PressurehPa in 1007.3 in -
Pluja: 4.3 in    
Historical Graphs
 
 
Tabular Data for Febrer 5, 2017
Time Temperature Dew Point Pressure Wind Wind Speed Wind Gust Humidity Rainfall Rate (Hourly) solar Conditions
TemperatureC °F DewpointC °F PressurehPa in Calm     Humidity % HourlyPrecipMM in SolarRadiationWatts/m^2 W/m2 Conditions
00:03 8.5 °F 7.1 °F 1010.7 in Calm     91 % 0.0 in 0.0 W/m2 CLR
00:08 8.5 °F 7.1 °F 1010.7 in Calm     91 % 0.0 in 0.0 W/m2 CLR
00:13 8.4 °F 7.1 °F 1010.7 in Calm     91 % 0.0 in 0.0 W/m2 CLR
00:18 8.3 °F 6.9 °F 1010.7 in Calm     91 % 0.0 in 0.0 W/m2 CLR
00:23 8.3 °F 6.9 °F 1010.7 in Calm     91 % 0.0 in 0.0 W/m2 CLR
00:28 8.3 °F 6.9 °F 1010.7 in Calm     91 % 0.0 in 0.0 W/m2 CLR
00:33 8.2 °F 6.8 °F 1010.7 in Calm     91 % 0.0 in 0.0 W/m2 CLR
00:38 8.3 °F 7.1 °F 1010.4 in Calm     92 % 0.0 in 0.0 W/m2 CLR
00:43 8.4 °F 7.2 °F 1010.4 in Calm     92 % 0.0 in 0.0 W/m2 CLR
00:48 8.3 °F 6.9 °F 1010.4 in Calm     91 % 0.0 in 0.0 W/m2 CLR
00:53 8.2 °F 6.8 °F 1010.4 in Calm     91 % 0.0 in 0.0 W/m2 CLR
00:58 8.3 °F 7.1 °F 1010.4 in Calm     92 % 0.0 in 0.0 W/m2 CLR
01:03 8.4 °F 7.2 °F 1010.4 in SW 13.0 mph 13.0 mph 92 % 0.0 in 0.0 W/m2 CLR
01:08 8.9 °F 7.7 °F 1010.0 in Calm     92 % 0.0 in 0.0 W/m2 CLR
01:13 9.4 °F 8.0 °F 1010.0 in WSW 14.8 mph 14.8 mph 91 % 0.0 in 0.0 W/m2 CLR
01:18 10.4 °F 8.6 °F 1010.0 in WSW 7.4 mph 7.4 mph 88 % 0.0 in 0.0 W/m2 CLR
01:23 11.1 °F 8.4 °F 1010.0 in WSW 9.3 mph 9.3 mph 84 % 0.0 in 0.0 W/m2 CLR
01:28 12.7 °F 8.9 °F 1009.7 in West 7.4 mph 7.4 mph 78 % 0.0 in 0.0 W/m2 CLR
01:33 13.8 °F 8.8 °F 1009.7 in West 9.3 mph 9.3 mph 72 % 0.0 in 0.0 W/m2 CLR
01:38 14.5 °F 8.7 °F 1009.7 in West 13.0 mph 13.0 mph 68 % 0.0 in 0.0 W/m2 CLR
01:43 14.8 °F 8.6 °F 1009.7 in WNW 9.3 mph 9.3 mph 66 % 0.0 in 0.0 W/m2 CLR
01:48 14.6 °F 8.5 °F 1009.7 in WNW 8.0 mph 8.0 mph 67 % 0.0 in 0.0 W/m2 CLR
01:53 14.3 °F 8.2 °F 1009.7 in WNW 5.6 mph 5.6 mph 67 % 0.0 in 0.0 W/m2 CLR
01:58 14.2 °F 8.1 °F 1009.4 in Calm     67 % 0.0 in 0.0 W/m2 CLR
02:03 14.3 °F 8.1 °F 1009.4 in Calm     66 % 0.0 in 0.0 W/m2 CLR
02:08 13.9 °F 8.3 °F 1009.4 in Calm     69 % 0.0 in 0.0 W/m2 CLR
02:13 13.1 °F 7.9 °F 1009.4 in Calm     71 % 0.0 in 0.0 W/m2 CLR
02:18 12.8 °F 7.8 °F 1009.4 in Calm     72 % 0.0 in 0.0 W/m2 CLR
02:23 12.6 °F 7.8 °F 1009.4 in Calm     73 % 0.0 in 0.0 W/m2 CLR
02:28 12.5 °F 8.0 °F 1009.4 in Calm     74 % 0.0 in 0.0 W/m2 CLR
02:33 12.3 °F 7.8 °F 1009.4 in Calm     74 % 0.0 in 0.0 W/m2 CLR
02:38 12.3 °F 7.9 °F 1009.4 in Calm     75 % 0.0 in 0.0 W/m2 CLR
02:43 12.3 °F 7.9 °F 1009.4 in Calm     75 % 0.0 in 0.0 W/m2 CLR
02:48 12.4 °F 8.1 °F 1009.0 in Calm     75 % 0.0 in 0.0 W/m2 CLR
02:53 12.1 °F 7.8 °F 1009.0 in Calm     75 % 0.0 in 0.0 W/m2 CLR
02:58 12.1 °F 8.0 °F 1009.0 in Calm     76 % 0.0 in 0.0 W/m2 CLR
03:03 12.3 °F 8.0 °F 1008.7 in Calm     75 % 0.0 in 0.0 W/m2 CLR
03:08 12.4 °F 8.1 °F 1008.7 in Calm     75 % 0.0 in 0.0 W/m2 CLR
03:13 12.2 °F 7.9 °F 1008.7 in East 7.4 mph 7.4 mph 75 % 0.0 in 0.0 W/m2 CLR
03:18 11.8 °F 7.9 °F 1008.7 in Calm     77 % 0.0 in 0.0 W/m2 CLR
03:23 11.8 °F 7.9 °F 1008.4 in Calm     77 % 0.0 in 0.0 W/m2 CLR
03:28 11.9 °F 8.1 °F 1008.4 in Calm     77 % 0.0 in 0.0 W/m2 CLR
03:33 11.6 °F 7.7 °F 1008.4 in Calm     77 % 0.0 in 0.0 W/m2 CLR
03:38 11.4 °F 7.9 °F 1008.4 in Calm     79 % 0.0 in 0.0 W/m2 CLR
03:43 11.1 °F 7.8 °F 1008.0 in Calm     80 % 0.0 in 0.0 W/m2 CLR
03:48 10.9 °F 7.8 °F 1008.0 in Calm     81 % 0.0 in 0.0 W/m2 CLR
03:53 10.9 °F 7.8 °F 1008.0 in Calm     81 % 0.0 in 0.0 W/m2 CLR
03:58 10.8 °F 7.7 °F 1008.0 in Calm     81 % 0.0 in 0.0 W/m2 CLR
04:03 10.6 °F 7.5 °F 1008.0 in Calm     81 % 0.0 in 0.0 W/m2 CLR
04:08 10.3 °F 7.4 °F 1008.0 in Calm     82 % 0.0 in 0.0 W/m2 CLR
04:13 10.1 °F 7.3 °F 1008.0 in Calm     83 % 0.0 in 0.0 W/m2 CLR
04:18 9.9 °F 7.4 °F 1008.0 in Calm     84 % 0.0 in 0.0 W/m2 CLR
04:23 9.9 °F 7.4 °F 1008.0 in Calm     84 % 0.0 in 0.0 W/m2 CLR
04:28 9.8 °F 7.2 °F 1008.0 in Calm     84 % 0.0 in 0.0 W/m2 CLR
04:33 9.7 °F 7.4 °F 1008.0 in Calm     86 % 0.0 in 0.0 W/m2 CLR
04:38 9.7 °F 7.5 °F 1008.0 in Calm     86 % 0.0 in 0.0 W/m2 CLR
04:43 9.7 °F 7.5 °F 1007.7 in Calm     86 % 0.0 in 0.0 W/m2 CLR
04:48 9.6 °F 7.2 °F 1008.0 in Calm     85 % 0.0 in 0.0 W/m2 CLR
04:53 9.5 °F 7.3 °F 1007.7 in Calm     86 % 0.0 in 0.0 W/m2 CLR
04:58 9.5 °F 7.1 °F 1007.7 in Calm     85 % 0.0 in 0.0 W/m2 CLR
05:03 9.5 °F 7.3 °F 1007.7 in Calm     86 % 0.0 in 0.0 W/m2 CLR
05:09 9.8 °F 7.6 °F 1007.7 in Calm   1.4 mph 86 % 0.0 in 0.0 W/m2 CLR
05:14 9.9 °F 7.6 °F 1007.7 in Calm     85 % 0.0 in 0.0 W/m2 CLR
05:19 9.9 °F 7.3 °F 1007.7 in Calm     84 % 0.0 in 0.0 W/m2 CLR
05:24 9.7 °F 7.2 °F 1007.7 in Calm     84 % 0.0 in 0.0 W/m2 CLR
05:29 9.4 °F 7.1 °F 1007.7 in Calm     85 % 0.0 in 0.0 W/m2 CLR
05:34 9.3 °F 7.1 °F 1007.3 in Calm     86 % 0.0 in 0.0 W/m2 CLR
05:39 9.3 °F 7.1 °F 1007.3 in Calm     86 % 0.0 in 0.0 W/m2 CLR
05:44 9.2 °F 7.2 °F 1007.3 in Calm     87 % 0.3 in 0.0 W/m2 RA
05:49 9.2 °F 7.3 °F 1007.7 in Calm     88 % 0.3 in 0.0 W/m2
05:54 9.2 °F 7.3 °F 1008.0 in Calm     88 % 0.5 in 0.0 W/m2 RA
05:59 9.3 °F 7.6 °F 1008.0 in West 13.0 mph 13.0 mph 89 % 0.8 in 0.0 W/m2 RA
06:04 10.6 °F 8.6 °F 1009.4 in NW 55.5 mph 55.5 mph 87 % 1.8 in 0.0 W/m2 RA
06:09 10.4 °F 8.4 °F 1009.4 in NNW 35.2 mph 35.2 mph 87 % 2.3 in 0.0 W/m2 RA
06:14 10.2 °F 8.2 °F 1009.4 in NNW 48.1 mph 48.1 mph 87 % 2.3 in 0.0 W/m2 RA
06:19 10.0 °F 7.9 °F 1009.4 in NW 48.1 mph 48.1 mph 87 % 2.5 in 0.0 W/m2 RA
06:24 9.8 °F 7.8 °F 1009.0 in NW 31.5 mph 31.5 mph 87 % 2.8 in 0.0 W/m2 RA
06:29 9.7 °F 7.8 °F 1009.0 in NW 29.0 mph 29.0 mph 88 % 2.8 in 0.0 W/m2
06:34 9.7 °F 7.8 °F 1009.0 in NW 27.8 mph 27.8 mph 88 % 3.0 in 0.0 W/m2 RA
06:39 9.7 °F 7.8 °F 1008.7 in WNW 18.5 mph 18.5 mph 88 % 3.0 in 0.0 W/m2 CLR
06:44 9.8 °F 7.9 °F 1008.0 in WNW 14.8 mph 14.8 mph 88 % 2.8 in 0.0 W/m2 CLR
06:49 10.1 °F 7.8 °F 1008.7 in West 22.2 mph 22.2 mph 86 % 2.8 in 0.0 W/m2 CLR
06:54 10.3 °F 7.9 °F 1008.4 in West 11.1 mph 11.1 mph 85 % 2.5 in 0.0 W/m2 CLR
06:59 10.4 °F 8.0 °F 1008.4 in WSW 11.1 mph 11.1 mph 85 % 2.3 in 0.0 W/m2 CLR
07:04 10.1 °F 7.9 °F 1008.4 in SW 13.0 mph 13.0 mph 86 % 1.3 in 0.0 W/m2 CLR
07:09 9.8 °F 7.8 °F 1008.4 in SW 8.0 mph 8.0 mph 87 % 0.8 in 0.0 W/m2 CLR
07:14 9.7 °F 7.8 °F 1008.4 in WSW 9.3 mph 9.3 mph 88 % 0.5 in 0.0 W/m2 CLR
07:19 9.8 °F 7.9 °F 1008.4 in WSW 11.1 mph 11.1 mph 88 % 0.5 in 0.0 W/m2 CLR
07:24 9.9 °F 7.9 °F 1008.4 in West 9.3 mph 9.3 mph 87 % 0.3 in 0.0 W/m2 CLR
07:29 10.0 °F 7.9 °F 1008.0 in WSW 7.4 mph 7.4 mph 87 % 0.3 in 0.0 W/m2 CLR
07:34 10.0 °F 7.9 °F 1008.0 in WSW 5.6 mph 5.6 mph 87 % 0.0 in 0.0 W/m2 CLR
07:39 9.9 °F 7.8 °F 1008.4 in WSW 7.4 mph 7.4 mph 87 % 0.0 in 0.0 W/m2 CLR
07:44 9.8 °F 7.9 °F 1008.4 in WSW 7.4 mph 7.4 mph 88 % 0.0 in 0.0 W/m2 CLR
07:49 9.6 °F 7.7 °F 1008.4 in WSW 6.4 mph 6.4 mph 88 % 0.0 in 0.0 W/m2 CLR
07:54 9.3 °F 7.6 °F 1008.4 in SW 7.4 mph 7.4 mph 89 % 0.0 in 0.0 W/m2 CLR
07:59 9.1 °F 7.4 °F 1008.4 in SW 5.6 mph 5.6 mph 89 % 0.0 in 0.0 W/m2 CLR
08:04 8.9 °F 7.4 °F 1008.4 in WSW 5.6 mph 5.6 mph 90 % 0.0 in 0.0 W/m2 OVC
08:09 8.9 °F 7.6 °F 1008.4 in WSW 6.4 mph 6.4 mph 91 % 0.0 in 0.0 W/m2 OVC
08:14 9.0 °F 7.4 °F 1008.4 in WSW 11.3 mph 11.3 mph 90 % 0.0 in 0.0 W/m2 OVC
08:19 9.3 °F 7.6 °F 1008.4 in WSW 13.0 mph 13.0 mph 89 % 0.0 in 0.0 W/m2 OVC
08:24 9.7 °F 7.7 °F 1008.4 in WSW 11.3 mph 11.3 mph 87 % 0.0 in 11.0 W/m2 BKN
08:29 9.9 °F 7.5 °F 1008.4 in WSW 13.0 mph 13.0 mph 85 % 0.0 in 28.0 W/m2 BKN
08:34 10.1 °F 7.6 °F 1008.4 in WSW 9.3 mph 9.3 mph 84 % 0.3 in 28.0 W/m2 RA
08:39 10.2 °F 7.4 °F 1008.7 in WSW 13.0 mph 13.0 mph 83 % 0.3 in 7.0 W/m2 BKN
08:44 10.8 °F 6.9 °F 1009.7 in ENE 57.4 mph 57.4 mph 77 % 0.3 in 0.0 W/m2 OVC
08:49 10.5 °F 6.6 °F 1009.7 in ENE 42.6 mph 42.6 mph 77 % 0.5 in 0.0 W/m2 RA
08:54 9.4 °F 6.3 °F 1010.4 in ENE 48.1 mph 48.1 mph 81 % 0.5 in 0.0 W/m2 RA
08:59 8.5 °F 5.6 °F 1010.7 in ENE 37.0 mph 37.0 mph 82 % 1.0 in 0.0 W/m2 RA
09:04 8.3 °F 5.4 °F 1010.4 in ENE 42.6 mph 42.6 mph 82 % 1.3 in 0.0 W/m2 RA
09:09 8.7 °F 5.4 °F 1010.4 in ENE 38.9 mph 38.9 mph 80 % 1.3 in 12.0 W/m2
09:14 8.6 °F 5.6 °F 1010.4 in ENE 29.0 mph 29.0 mph 81 % 1.3 in 14.0 W/m2 BKN
09:19 8.6 °F 5.6 °F 1010.4 in ENE 24.1 mph 24.1 mph 81 % 1.3 in 39.0 W/m2 BKN
09:24 8.6 °F 5.6 °F 1010.0 in ENE 18.5 mph 18.5 mph 81 % 1.3 in 26.0 W/m2 BKN
09:29 8.6 °F 5.6 °F 1010.4 in ENE 18.5 mph 18.5 mph 81 % 1.3 in 39.0 W/m2 BKN
09:34 8.6 °F 5.6 °F 1010.0 in ENE 5.6 mph 5.6 mph 81 % 1.0 in 62.0 W/m2 BKN
09:39 8.7 °F 5.7 °F 1010.0 in ENE 16.7 mph 16.7 mph 81 % 1.0 in 100.0 W/m2 SCT
09:44 8.9 °F 5.5 °F 1010.0 in ENE 31.5 mph 31.5 mph 79 % 1.0 in 167.0 W/m2 FEW
09:49 9.2 °F 5.6 °F 1010.0 in ENE 25.9 mph 25.9 mph 78 % 0.8 in 128.0 W/m2 CLR
09:54 9.2 °F 5.6 °F 1010.0 in ENE 25.9 mph 25.9 mph 78 % 0.5 in 98.0 W/m2 CLR
09:59 9.2 °F 5.6 °F 1010.0 in ENE 29.6 mph 29.6 mph 78 % 0.3 in 120.0 W/m2 CLR
10:04 9.3 °F 5.3 °F 1010.0 in ENE 35.2 mph 35.2 mph 76 % 0.0 in 148.0 W/m2 CLR
10:09 9.4 °F 5.2 °F 1010.0 in ENE 31.5 mph 31.5 mph 75 % 0.0 in 172.0 W/m2 CLR
10:14 9.4 °F 5.2 °F 1010.4 in ENE 27.8 mph 27.8 mph 75 % 0.0 in 179.0 W/m2 CLR
10:19 9.4 °F 4.8 °F 1010.4 in ENE 25.7 mph 26.7 mph 73 % 0.0 in 142.0 W/m2 CLR
10:24 9.4 °F 4.8 °F 1010.7 in ENE 27.8 mph 27.8 mph 73 % 0.0 in 134.0 W/m2 CLR
10:29 9.4 °F 4.8 °F 1010.7 in ENE 27.8 mph 27.8 mph 73 % 0.0 in 130.0 W/m2 CLR
10:34 9.5 °F 4.5 °F 1010.7 in ENE 33.3 mph 33.3 mph 71 % 0.0 in 130.0 W/m2 CLR
10:39 9.5 °F 4.3 °F 1010.4 in ENE 33.3 mph 33.3 mph 70 % 0.0 in 148.0 W/m2 CLR
10:44 9.5 °F 4.1 °F 1010.7 in ENE 27.8 mph 27.8 mph 69 % 0.0 in 165.0 W/m2 CLR
10:49 9.5 °F 4.1 °F 1010.4 in ENE 35.2 mph 35.2 mph 69 % 0.0 in 178.0 W/m2 CLR
10:55 9.6 °F 3.9 °F 1010.4 in ENE 38.9 mph 38.9 mph 68 % 0.0 in 232.0 W/m2 CLR
11:00 9.6 °F 4.0 °F 1010.4 in ENE 42.6 mph 42.6 mph 68 % 0.0 in 257.0 W/m2 CLR
11:05 9.7 °F 3.8 °F 1010.4 in ENE 48.1 mph 48.1 mph 67 % 0.0 in 267.0 W/m2 CLR
11:10 9.8 °F 4.3 °F 1010.4 in ENE 38.9 mph 38.9 mph 69 % 0.0 in 341.0 W/m2 CLR
11:15 10.1 °F 4.6 °F 1010.4 in ENE 40.2 mph 40.2 mph 69 % 0.0 in 360.0 W/m2 CLR
11:20 10.1 °F 4.3 °F 1010.7 in ENE 42.6 mph 42.6 mph 67 % 0.0 in 237.0 W/m2 CLR
11:25 9.9 °F 3.8 °F 1010.7 in ENE 64.8 mph 64.8 mph 66 % 0.0 in 176.0 W/m2 CLR
11:30 9.7 °F 3.7 °F 1010.4 in ENE 55.5 mph 55.5 mph 66 % 0.0 in 162.0 W/m2 CLR
11:35 9.8 °F 4.2 °F 1011.1 in ENE 38.9 mph 38.9 mph 68 % 0.0 in 269.0 W/m2 CLR
11:40 10.3 °F 4.2 °F 1010.7 in ENE 55.5 mph 55.5 mph 66 % 0.0 in 506.0 W/m2 CLR
11:45 10.4 °F 3.7 °F 1010.7 in ENE 62.9 mph 62.9 mph 63 % 0.0 in 499.0 W/m2 CLR
11:50 10.6 °F 4.1 °F 1011.1 in ENE 59.2 mph 59.2 mph 64 % 0.0 in 499.0 W/m2 CLR
11:55 10.7 °F 3.9 °F 1011.1 in ENE 61.1 mph 61.1 mph 63 % 0.0 in 501.0 W/m2 CLR
12:00 10.8 °F 3.8 °F 1011.1 in ENE 48.1 mph 48.1 mph 62 % 0.0 in 508.0 W/m2 CLR
12:05 10.8 °F 3.6 °F 1011.1 in ENE 57.4 mph 57.4 mph 61 % 0.0 in 527.0 W/m2 CLR
12:10 10.9 °F 3.7 °F 1011.4 in ENE 57.4 mph 57.4 mph 61 % 0.0 in 541.0 W/m2 CLR
12:15 11.1 °F 3.8 °F 1011.1 in ENE 44.4 mph 44.4 mph 61 % 0.0 in 522.0 W/m2 CLR
12:20 11.2 °F 3.7 °F 1011.1 in ENE 51.8 mph 51.8 mph 60 % 0.0 in 540.0 W/m2 CLR
12:25 11.2 °F 3.7 °F 1011.1 in ENE 55.5 mph 55.5 mph 60 % 0.0 in 598.0 W/m2 CLR
12:30 11.2 °F 3.5 °F 1011.1 in ENE 64.8 mph 64.8 mph 59 % 0.0 in 592.0 W/m2 CLR
12:35 11.5 °F 4.4 °F 1011.1 in ENE 27.8 mph 27.8 mph 62 % 0.0 in 714.0 W/m2 CLR
12:40 11.4 °F 3.7 °F 1011.1 in ENE 55.5 mph 55.5 mph 59 % 0.0 in 174.0 W/m2 CLR
12:45 11.0 °F 3.1 °F 1011.7 in ENE 46.3 mph 46.3 mph 58 % 0.0 in 163.0 W/m2 CLR
12:50 10.7 °F 2.3 °F 1011.7 in ENE 62.8 mph 62.8 mph 56 % 0.0 in 171.0 W/m2 CLR
12:55 10.4 °F 2.2 °F 1011.7 in ENE 48.3 mph 48.3 mph 57 % 0.0 in 163.0 W/m2 CLR
13:00 10.4 °F 2.3 °F 1011.7 in ENE 51.8 mph 51.8 mph 57 % 0.0 in 144.0 W/m2 CLR
13:05 10.6 °F 2.6 °F 1011.7 in ENE 42.6 mph 42.6 mph 58 % 0.0 in 151.0 W/m2 CLR
13:10 10.9 °F 2.7 °F 1011.7 in ENE 55.5 mph 55.5 mph 57 % 0.0 in 568.0 W/m2 CLR
13:15 11.3 °F 2.6 °F 1012.1 in ENE 55.5 mph 55.5 mph 55 % 0.0 in 679.0 W/m2 CLR
13:20 11.4 °F 2.4 °F 1012.1 in ENE 55.5 mph 55.5 mph 54 % 0.0 in 327.0 W/m2 CLR
13:25 11.2 °F 2.2 °F 1012.1 in ENE 42.6 mph 42.6 mph 54 % 0.0 in 202.0 W/m2 CLR
13:30 11.0 °F 2.1 °F 1012.1 in ENE 51.8 mph 51.8 mph 54 % 0.0 in 125.0 W/m2 CLR
13:35 10.8 °F 2.2 °F 1012.1 in ENE 40.2 mph 40.2 mph 55 % 0.0 in 163.0 W/m2 CLR
13:40 10.8 °F 2.4 °F 1012.1 in ENE 53.7 mph 53.7 mph 56 % 0.0 in 105.0 W/m2 CLR
13:45 10.7 °F 2.2 °F 1012.1 in ENE 61.1 mph 61.1 mph 56 % 0.0 in 109.0 W/m2 CLR
13:50 10.6 °F 2.4 °F 1012.1 in ENE 49.9 mph 49.9 mph 57 % 0.0 in 174.0 W/m2 CLR
13:55 10.6 °F 2.1 °F 1012.8 in ENE 66.6 mph 66.6 mph 56 % 0.0 in 79.0 W/m2 CLR
14:00 10.6 °F 2.4 °F 1012.4 in ENE 46.7 mph 46.7 mph 57 % 0.0 in 127.0 W/m2 CLR
14:05 10.6 °F 2.6 °F 1012.4 in ENE 42.6 mph 42.6 mph 58 % 0.0 in 130.0 W/m2 CLR
14:10 10.4 °F 2.2 °F 1012.8 in ENE 51.8 mph 51.8 mph 57 % 0.0 in 155.0 W/m2 CLR
14:15 10.4 °F 2.5 °F 1012.8 in ENE 50.0 mph 50.0 mph 58 % 0.0 in 128.0 W/m2 CLR
14:20 10.4 °F 2.7 °F 1012.8 in ENE 42.6 mph 42.6 mph 59 % 0.0 in 223.0 W/m2 CLR
14:25 10.4 °F 2.5 °F 1012.8 in ENE 35.4 mph 35.4 mph 58 % 0.0 in 142.0 W/m2 CLR
14:30 10.5 °F 2.8 °F 1012.4 in ENE 48.1 mph 48.1 mph 59 % 0.0 in 176.0 W/m2 CLR
14:35 10.7 °F 2.7 °F 1012.8 in ENE 42.6 mph 42.6 mph 58 % 0.0 in 72.0 W/m2 CLR
14:40 10.4 °F 2.8 °F 1013.1 in ENE 53.7 mph 53.7 mph 59 % 0.0 in 121.0 W/m2 CLR
14:45 10.1 °F 2.9 °F 1013.4 in ENE 55.5 mph 55.5 mph 61 % 0.0 in 72.0 W/m2 CLR
14:50 9.5 °F 2.6 °F 1013.4 in ENE 54.7 mph 54.7 mph 62 % 0.0 in 65.0 W/m2 FEW
14:55 9.1 °F 2.9 °F 1013.4 in ENE 53.7 mph 53.7 mph 65 % 0.0 in 104.0 W/m2 FEW
15:00 9.3 °F 3.2 °F 1013.8 in ENE 46.3 mph 46.3 mph 66 % 0.0 in 199.0 W/m2 FEW
15:05 9.5 °F 3.0 °F 1014.1 in ENE 44.4 mph 44.4 mph 64 % 0.0 in 97.0 W/m2 CLR
15:10 9.3 °F 3.1 °F 1014.1 in ENE 55.5 mph 55.5 mph 65 % 0.0 in 62.0 W/m2 CLR
15:15 9.0 °F 3.4 °F 1014.1 in ENE 42.6 mph 42.6 mph 68 % 0.0 in 88.0 W/m2 FEW
15:20 8.7 °F 3.6 °F 1014.1 in ENE 40.7 mph 40.7 mph 70 % 0.0 in 120.0 W/m2 FEW
15:25 8.6 °F 3.7 °F 1014.1 in ENE 29.6 mph 29.6 mph 71 % 0.0 in 132.0 W/m2 CLR
15:30 8.6 °F 3.8 °F 1014.1 in ENE 25.9 mph 25.9 mph 72 % 0.0 in 169.0 W/m2 CLR
15:35 8.8 °F 4.1 °F 1014.1 in ENE 27.8 mph 27.8 mph 72 % 0.0 in 271.0 W/m2 CLR
15:40 9.1 °F 4.1 °F 1014.1 in ENE 29.6 mph 29.6 mph 71 % 0.0 in 186.0 W/m2 CLR
15:45 9.3 °F 4.3 °F 1014.1 in ENE 35.4 mph 35.4 mph 71 % 0.0 in 214.0 W/m2 CLR
15:50 9.8 °F 3.9 °F 1014.1 in ENE 33.3 mph 33.3 mph 67 % 0.0 in 353.0 W/m2 CLR
15:55 9.9 °F 4.1 °F 1014.1 in ENE 35.2 mph 35.2 mph 67 % 0.0 in 332.0 W/m2 CLR
16:00 9.8 °F 4.2 °F 1014.4 in ENE 31.5 mph 31.5 mph 68 % 0.0 in 360.0 W/m2 CLR
16:05 9.7 °F 3.9 °F 1014.4 in ENE 32.2 mph 32.2 mph 67 % 0.0 in 88.0 W/m2 CLR
16:10 9.5 °F 3.2 °F 1014.8 in ENE 51.8 mph 51.8 mph 65 % 0.0 in 76.0 W/m2 FEW
16:15 9.5 °F 3.2 °F 1015.1 in ENE 38.9 mph 38.9 mph 65 % 0.0 in 33.0 W/m2 FEW
16:20 9.4 °F 3.4 °F 1015.1 in ENE 35.2 mph 35.2 mph 66 % 0.0 in 56.0 W/m2 SCT
16:25 9.2 °F 2.8 °F 1014.8 in ENE 44.4 mph 44.4 mph 64 % 0.0 in 79.0 W/m2 SCT
16:30 9.4 °F 2.9 °F 1014.8 in ENE 29.6 mph 29.6 mph 64 % 0.0 in 276.0 W/m2 FEW
16:35 9.7 °F 2.9 °F 1014.8 in ENE 31.5 mph 31.5 mph 63 % 0.0 in 253.0 W/m2 CLR
16:40 9.9 °F 3.0 °F 1015.1 in ENE 38.9 mph 38.9 mph 62 % 0.0 in 237.0 W/m2 CLR
16:45 10.1 °F 3.3 °F 1015.1 in ENE 42.6 mph 42.6 mph 63 % 0.0 in 223.0 W/m2 CLR
16:51 10.0 °F 3.1 °F 1015.1 in ENE 46.3 mph 46.3 mph 62 % 0.0 in 211.0 W/m2 CLR
16:56 9.8 °F 3.1 °F 1015.1 in ENE 38.9 mph 38.9 mph 63 % 0.0 in 42.0 W/m2 CLR
17:01 9.7 °F 3.0 °F 1015.1 in ENE 27.8 mph 27.8 mph 63 % 0.0 in 174.0 W/m2 FEW
17:06 9.7 °F 2.7 °F 1015.5 in ENE 42.6 mph 42.6 mph 62 % 0.0 in 155.0 W/m2 FEW
17:11 9.7 °F 2.6 °F 1015.8 in ENE 35.2 mph 35.2 mph 61 % 0.0 in 51.0 W/m2 CLR
17:16 9.7 °F 2.6 °F 1015.8 in ENE 42.6 mph 42.6 mph 61 % 0.0 in 123.0 W/m2 FEW
17:21 9.8 °F 2.4 °F 1016.1 in ENE 32.2 mph 32.2 mph 60 % 0.0 in 135.0 W/m2 CLR
17:26 9.9 °F 2.5 °F 1016.1 in ENE 24.1 mph 24.1 mph 60 % 0.0 in 32.0 W/m2 CLR
17:31 9.8 °F 2.4 °F 1016.1 in ENE 20.9 mph 20.9 mph 60 % 0.0 in 32.0 W/m2 BKN
17:36 9.7 °F 2.3 °F 1016.1 in ENE 33.3 mph 33.3 mph 60 % 0.0 in 35.0 W/m2 BKN
17:41 9.6 °F 2.4 °F 1016.1 in ENE 27.8 mph 27.8 mph 61 % 0.0 in 62.0 W/m2 SCT
17:46 9.6 °F 2.4 °F 1016.1 in ENE 25.7 mph 25.7 mph 61 % 0.0 in 46.0 W/m2 SCT
17:51 9.6 °F 2.2 °F 1016.1 in ENE 31.5 mph 31.5 mph 60 % 0.0 in 42.0 W/m2 BKN
17:56 9.6 °F 2.6 °F 1016.1 in ENE 18.5 mph 18.5 mph 62 % 0.0 in 25.0 W/m2 BKN
18:01 9.4 °F 2.4 °F 1016.1 in ENE 31.5 mph 31.5 mph 62 % 0.0 in 14.0 W/m2 BKN
18:06 9.3 °F 2.4 °F 1016.5 in ENE 14.8 mph 14.8 mph 62 % 0.0 in 12.0 W/m2 BKN
18:11 9.2 °F 2.6 °F 1016.5 in ENE 13.0 mph 13.0 mph 63 % 0.0 in 11.0 W/m2 BKN
18:16 9.2 °F 2.3 °F 1016.8 in ENE 14.8 mph 14.8 mph 62 % 0.0 in 5.0 W/m2 OVC
18:21 9.2 °F 2.6 °F 1016.8 in ENE 14.8 mph 14.8 mph 63 % 0.0 in 0.0 W/m2 OVC
18:26 9.2 °F 1.8 °F 1017.2 in ENE 31.5 mph 31.5 mph 60 % 0.0 in 0.0 W/m2 OVC
18:31 9.3 °F 1.7 °F 1017.2 in ENE 27.8 mph 27.8 mph 59 % 0.0 in 0.0 W/m2 CLR
18:36 9.3 °F 1.7 °F 1017.2 in ENE 18.5 mph 18.5 mph 59 % 0.0 in 0.0 W/m2 CLR
18:41 9.2 °F 1.3 °F 1017.5 in ENE 25.9 mph 25.9 mph 58 % 0.0 in 0.0 W/m2 CLR
18:51 9.0 °F 1.2 °F 1018.2 in ENE 38.9 mph 38.9 mph 58 % 0.0 in 0.0 W/m2 CLR
18:56 9.1 °F 1.3 °F 1018.2 in ENE 33.3 mph 33.3 mph 58 % 0.0 in 0.0 W/m2 CLR
19:01 9.0 °F 1.4 °F 1018.2 in ENE 37.0 mph 37.0 mph 59 % 0.0 in 0.0 W/m2 CLR
19:06 9.0 °F 1.4 °F 1018.5 in ENE 31.5 mph 31.5 mph 59 % 0.0 in 0.0 W/m2 CLR
19:11 8.9 °F 1.6 °F 1018.5 in ENE 31.5 mph 31.5 mph 60 % 0.0 in 0.0 W/m2 CLR
19:16 8.8 °F 1.5 °F 1018.8 in ENE 35.2 mph 35.2 mph 60 % 0.0 in 0.0 W/m2 CLR
19:21 8.7 °F 1.6 °F 1019.2 in ENE 38.9 mph 38.9 mph 61 % 0.0 in 0.0 W/m2 CLR
19:26 8.6 °F 1.4 °F 1019.2 in ENE 44.4 mph 44.4 mph 61 % 0.0 in 0.0 W/m2 CLR
19:31 8.5 °F 1.6 °F 1019.5 in ENE 42.6 mph 42.6 mph 62 % 0.0 in 0.0 W/m2 CLR
19:36 8.4 °F 1.5 °F 1019.5 in ENE 42.6 mph 42.6 mph 62 % 0.0 in 0.0 W/m2 CLR
19:41 8.3 °F 1.7 °F 1019.5 in ENE 42.6 mph 42.6 mph 63 % 0.0 in 0.0 W/m2 CLR
19:46 8.2 °F 1.6 °F 1019.5 in ENE 29.6 mph 29.6 mph 63 % 0.0 in 0.0 W/m2 CLR
19:56 8.0 °F 1.4 °F 1019.9 in ENE 50.0 mph 50.0 mph 63 % 0.0 in 0.0 W/m2 CLR
20:01 7.9 °F 1.5 °F 1019.9 in ENE 35.2 mph 35.2 mph 64 % 0.0 in 0.0 W/m2 CLR
20:06 7.9 °F 1.3 °F 1019.9 in ENE 50.0 mph 50.0 mph 63 % 0.0 in 0.0 W/m2 CLR
20:11 7.8 °F 1.4 °F 1020.2 in ENE 42.6 mph 42.6 mph 64 % 0.0 in 0.0 W/m2 CLR
20:16 7.8 °F 1.4 °F 1020.2 in ENE 57.4 mph 57.4 mph 64 % 0.0 in 0.0 W/m2 CLR
20:21 7.7 °F 1.5 °F 1020.2 in NNE 42.6 mph 42.6 mph 65 % 0.0 in 0.0 W/m2 CLR
20:26 7.6 °F 1.4 °F 1019.9 in NW 37.0 mph 37.0 mph 65 % 0.0 in 0.0 W/m2 CLR
20:31 7.4 °F 1.3 °F 1019.9 in NW 38.9 mph 38.9 mph 65 % 0.0 in 0.0 W/m2 CLR
20:36 7.5 °F 1.3 °F 1019.9 in NW 40.7 mph 40.7 mph 65 % 0.0 in 0.0 W/m2 CLR
20:41 7.4 °F 1.3 °F 1020.5 in NW 46.3 mph 46.3 mph 65 % 0.0 in 0.0 W/m2 CLR
20:46 7.4 °F 1.2 °F 1020.2 in NW 37.0 mph 37.0 mph 65 % 0.0 in 0.0 W/m2 CLR
20:47 7.4 °F 1.2 °F 1020.2 in NW 40.7 mph 40.7 mph 65 % 0.0 in 0.0 W/m2 CLR
20:52 7.3 °F 1.2 °F 1020.2 in NW 42.6 mph 42.6 mph 65 % 0.0 in 0.0 W/m2 CLR
20:57 7.3 °F 1.2 °F 1020.5 in NW 44.4 mph 44.4 mph 65 % 0.0 in 0.0 W/m2 CLR
21:02 7.4 °F 1.2 °F 1020.5 in NW 53.7 mph 53.7 mph 65 % 0.0 in 0.0 W/m2 CLR
21:07 7.4 °F 1.1 °F 1020.5 in NW 48.1 mph 48.1 mph 64 % 0.0 in 0.0 W/m2 CLR
21:12 7.6 °F 0.9 °F 1020.9 in NW 55.5 mph 55.5 mph 63 % 0.0 in 0.0 W/m2 CLR
21:17 7.7 °F 0.8 °F 1020.5 in NW 48.1 mph 48.1 mph 62 % 0.0 in 0.0 W/m2
21:22 7.7 °F 0.6 °F 1020.9 in NW 62.9 mph 62.9 mph 61 % 0.0 in 0.0 W/m2 CLR
21:27 7.7 °F 0.4 °F 1020.5 in NW 50.0 mph 50.0 mph 60 % 0.0 in 0.0 W/m2 CLR
21:32 7.6 °F 0.5 °F 1020.5 in NW 50.0 mph 50.5 mph 61 % 0.0 in 0.0 W/m2 CLR
21:37 7.5 °F 0.4 °F 1020.5 in NW 40.7 mph 40.7 mph 61 % 0.0 in 0.0 W/m2 CLR
21:42 7.4 °F 0.6 °F 1020.9 in NW 51.8 mph 51.8 mph 62 % 0.0 in 0.0 W/m2 CLR
21:47 7.3 °F 0.5 °F 1020.5 in NW 42.6 mph 42.6 mph 62 % 0.0 in 0.0 W/m2 CLR
21:52 7.2 °F 0.6 °F 1020.9 in NW 29.6 mph 29.6 mph 63 % 0.0 in 0.0 W/m2 CLR
21:57 7.1 °F 0.6 °F 1020.9 in NW 35.2 mph 35.2 mph 63 % 0.0 in 0.0 W/m2 CLR
22:02 7.2 °F 0.4 °F 1020.9 in NW 48.1 mph 48.1 mph 62 % 0.0 in 0.0 W/m2 CLR
22:07 7.2 °F 0.4 °F 1020.9 in NW 51.8 mph 51.8 mph 62 % 0.0 in 0.0 W/m2 CLR
22:12 7.3 °F 0.2 °F 1020.9 in NW 50.0 mph 50.0 mph 61 % 0.0 in 0.0 W/m2 CLR
22:13 7.3 °F 0.2 °F 1020.9 in NW 50.0 mph 50.0 mph 61 % 0.0 in 0.0 W/m2 CLR
22:18 7.3 °F 0.3 °F 1020.9 in NW 48.3 mph 48.3 mph 61 % 0.0 in 0.0 W/m2 CLR
22:23 7.4 °F 0.2 °F 1020.9 in NW 44.4 mph 44.4 mph 60 % 0.0 in 0.0 W/m2 CLR
22:28 7.4 °F 0.3 °F 1020.9 in NW 41.8 mph 41.8 mph 61 % 0.0 in 0.0 W/m2 CLR
22:33 7.4 °F 0.1 °F 1020.9 in NW 62.9 mph 62.9 mph 60 % 0.0 in 0.0 W/m2 CLR
22:38 7.4 °F 0.2 °F 1020.9 in NW 68.5 mph 68.5 mph 60 % 0.0 in 0.0 W/m2
22:43 7.5 °F 0.2 °F 1020.9 in NW 46.3 mph 46.3 mph 60 % 0.0 in 0.0 W/m2
22:48 7.6 °F 0.1 °F 1020.9 in NW 44.4 mph 44.4 mph 59 % 0.0 in 0.0 W/m2 CLR
22:53 7.5 °F 0.0 °F 1021.2 in NW 57.4 mph 57.4 mph 59 % 0.0 in 0.0 W/m2 CLR
22:58 7.6 °F 0.1 °F 1021.2 in NW 57.4 mph 57.4 mph 59 % 0.0 in 0.0 W/m2 CLR
23:03 7.4 °F 0.1 °F 1021.2 in NW 62.8 mph 62.8 mph 60 % 0.0 in 0.0 W/m2 CLR
23:08 7.3 °F 0.3 °F 1021.6 in NW 53.7 mph 53.7 mph 61 % 0.0 in 0.0 W/m2 CLR
23:13 7.2 °F 0.2 °F 1021.2 in NW 44.4 mph 44.4 mph 61 % 0.0 in 0.0 W/m2 CLR
23:18 7.2 °F 0.2 °F 1021.2 in NW 42.6 mph 42.6 mph 61 % 0.0 in 0.0 W/m2 CLR
23:23 7.2 °F 0.2 °F 1021.2 in NW 57.4 mph 57.4 mph 61 % 0.0 in 0.0 W/m2 CLR
23:28 7.2 °F 0.2 °F 1021.6 in NW 42.6 mph 42.6 mph 61 % 0.0 in 0.0 W/m2 CLR
23:33 7.2 °F 0.4 °F 1021.6 in NW 42.6 mph 42.6 mph 62 % 0.0 in 0.0 W/m2 CLR
23:38 7.2 °F 0.4 °F 1021.6 in NW 42.6 mph 42.6 mph 62 % 0.0 in 0.0 W/m2 CLR
23:43 7.2 °F 0.4 °F 1021.6 in NW 38.9 mph 38.9 mph 62 % 0.0 in 0.0 W/m2 CLR
23:48 7.1 °F 0.5 °F 1021.6 in NW 48.1 mph 48.1 mph 63 % 0.0 in 0.0 W/m2 CLR
23:53 7.1 °F 0.5 °F 1021.9 in NW 48.1 mph 48.1 mph 63 % 0.0 in 0.0 W/m2 CLR
23:58 7.1 °F 0.6 °F 1021.9 in NW 29.6 mph 29.6 mph 63 % 0.0 in 0.0 W/m2 CLR
Lo Temps de Massalio
Compliments of Weather Underground - 1.25 mb